createdAt,value
2022-09-05T00:02:30.252Z,2.03
2022-09-05T00:05:09.864Z,1.67
2022-09-05T00:07:59.566Z,2.30
2022-09-05T00:11:19.463Z,2.10
2022-09-05T00:13:33.022Z,2.15
2022-09-05T00:16:25.860Z,2.42
2022-09-05T00:24:17.725Z,1.80
2022-09-05T00:24:31.662Z,1.80
2022-09-05T00:25:32.668Z,1.98
2022-09-05T00:28:26.316Z,1.60
2022-09-05T00:31:54.303Z,2.20
2022-09-05T00:34:47.016Z,1.70
2022-09-05T00:37:29.206Z,1.52
2022-09-05T00:40:18.514Z,1.50
2022-09-05T00:42:50.536Z,1.60
2022-09-05T00:45:28.061Z,2.13
2022-09-05T00:48:04.298Z,2.15
2022-09-05T00:50:41.949Z,1.90
2022-09-05T00:53:19.912Z,1.83
2022-09-05T00:55:59.130Z,1.80
2022-09-05T00:59:03.353Z,1.83
2022-09-05T01:01:44.802Z,2.80
2022-09-05T01:04:33.640Z,1.83
2022-09-05T01:07:18.008Z,2.67
2022-09-05T01:10:04.492Z,2.05
2022-09-05T01:12:53.129Z,1.95
2022-09-05T01:15:32.160Z,1.80
2022-09-05T01:18:23.267Z,1.80
2022-09-05T01:21:17.361Z,2.30
2022-09-05T01:24:04.565Z,2.30
2022-09-05T01:26:48.955Z,1.90
2022-09-05T01:29:26.684Z,1.88
2022-09-05T01:32:15.415Z,2.33
2022-09-05T01:35:00.731Z,2.20
2022-09-05T01:37:37.512Z,1.98
2022-09-05T01:40:25.122Z,2.03
2022-09-05T01:43:07.057Z,2.35
2022-09-05T01:45:50.637Z,1.80
2022-09-05T01:48:31.438Z,2.40
2022-09-05T01:51:28.942Z,2.55
2022-09-05T01:54:25.495Z,2.60
2022-09-05T01:57:12.301Z,1.95
2022-09-05T01:59:53.009Z,1.90
2022-09-05T02:02:50.862Z,1.85
2022-09-05T02:05:52.252Z,1.83
2022-09-05T02:08:31.352Z,2.53
2022-09-05T02:11:06.262Z,2.00
2022-09-05T02:13:55.246Z,1.77
2022-09-05T02:16:30.289Z,2.38
2022-09-05T02:19:08.408Z,2.00
2022-09-05T02:21:56.838Z,2.05
2022-09-05T02:24:30.525Z,2.20
2022-09-05T02:27:31.614Z,2.55
2022-09-05T02:30:11.150Z,1.73
2022-09-05T02:32:48.362Z,2.30
2022-09-05T02:35:26.458Z,2.13
2022-09-05T02:40:03.713Z,2.67
2022-09-05T02:45:08.708Z,2.83
2022-09-05T02:45:20.201Z,2.55
2022-09-05T02:46:50.840Z,2.40
2022-09-05T02:51:20.114Z,2.47
2022-09-05T02:57:25.428Z,2.70
2022-09-05T02:57:34.403Z,2.15
2022-09-05T02:58:31.307Z,2.65
2022-09-05T03:01:15.773Z,2.40
2022-09-05T03:03:53.786Z,2.67
2022-09-05T03:06:35.152Z,1.55
2022-09-05T03:09:25.530Z,1.52
2022-09-05T03:12:29.589Z,1.83
2022-09-05T03:15:38.965Z,2.33
2022-09-05T03:18:43.261Z,2.03
2022-09-05T03:21:48.886Z,2.00
2022-09-05T03:24:56.190Z,3.45
2022-09-05T03:28:09.276Z,2.53
2022-09-05T03:30:53.377Z,3.08
2022-09-05T03:33:51.051Z,2.67
2022-09-05T03:37:03.449Z,2.30
2022-09-05T03:40:16.927Z,2.13
2022-09-05T03:43:20.260Z,2.55
2022-09-05T03:46:15.579Z,2.33
2022-09-05T03:50:38.806Z,2.08
2022-09-05T03:57:05.748Z,2.55
2022-09-05T03:57:21.027Z,2.42
2022-09-05T03:58:55.469Z,3.03
2022-09-05T04:02:40.323Z,2.25
2022-09-05T04:08:17.042Z,2.35
2022-09-05T04:10:12.093Z,2.45
2022-09-05T04:12:50.993Z,2.50
2022-09-05T04:15:30.354Z,2.45
2022-09-05T04:18:03.704Z,2.20
2022-09-05T04:20:40.950Z,2.65
2022-09-05T04:23:17.249Z,2.83
2022-09-05T04:26:11.126Z,2.28
2022-09-05T04:28:53.830Z,2.67
2022-09-05T04:31:31.591Z,2.45
2022-09-05T04:34:14.457Z,2.72
2022-09-05T04:36:46.000Z,2.33
2022-09-05T04:39:28.915Z,3.33
2022-09-05T04:42:04.064Z,2.22
2022-09-05T04:44:36.959Z,2.78
2022-09-05T04:47:14.259Z,2.58
2022-09-05T04:49:50.553Z,2.63
2022-09-05T04:52:59.005Z,2.55
2022-09-05T04:55:29.750Z,2.05
2022-09-05T04:58:01.909Z,2.28
2022-09-05T05:06:02.822Z,2.80
2022-09-05T05:06:09.089Z,1.88
2022-09-05T05:06:42.292Z,2.53
2022-09-05T05:09:21.878Z,2.22
2022-09-05T05:18:02.848Z,2.00
2022-09-05T05:18:06.722Z,2.53
2022-09-05T05:18:11.815Z,2.60
2022-09-05T05:20:42.674Z,2.03
2022-09-05T05:23:16.413Z,2.85
2022-09-05T05:25:50.664Z,3.58
2022-09-05T05:28:28.547Z,2.65
2022-09-05T05:31:01.967Z,3.55
2022-09-05T05:33:34.807Z,3.20
2022-09-05T05:36:05.484Z,2.40
2022-09-05T05:38:43.627Z,2.85
2022-09-05T05:41:19.088Z,2.83
2022-09-05T05:43:48.471Z,2.47
2022-09-05T05:46:29.782Z,2.67
2022-09-05T05:49:14.636Z,2.33
2022-09-05T05:52:00.958Z,3.30
2022-09-05T05:54:39.177Z,2.20
2022-09-05T05:57:33.037Z,3.15
2022-09-05T06:00:27.408Z,3.80
2022-09-05T06:03:33.654Z,2.65
2022-09-05T06:06:28.698Z,2.55
2022-09-05T06:14:52.252Z,2.70
2022-09-05T06:15:02.808Z,2.67
2022-09-05T06:16:30.856Z,3.38
2022-09-05T06:20:20.922Z,2.42
2022-09-05T06:22:55.482Z,2.65
2022-09-05T06:26:00.310Z,2.70
2022-09-05T06:28:42.316Z,2.97
2022-09-05T06:31:31.845Z,2.65
2022-09-05T06:34:33.282Z,2.90
2022-09-05T06:39:53.247Z,2.40
2022-09-05T06:42:42.643Z,1.80
2022-09-05T06:45:39.348Z,1.98
2022-09-05T06:48:21.484Z,2.13
2022-09-05T06:51:31.669Z,2.38
2022-09-05T06:54:24.639Z,3.00
2022-09-05T06:57:17.290Z,3.38
2022-09-05T07:00:22.031Z,2.65
2022-09-05T07:03:15.365Z,2.33
2022-09-05T07:05:55.745Z,2.03
2022-09-05T07:08:35.966Z,2.35
2022-09-05T07:11:15.825Z,2.30
2022-09-05T07:13:57.563Z,2.67
2022-09-05T07:16:38.883Z,2.72
2022-09-05T07:19:25.575Z,2.70
2022-09-05T07:22:18.434Z,2.83
2022-09-05T07:24:57.896Z,2.33
2022-09-05T07:27:34.829Z,2.88
2022-09-05T07:30:20.665Z,2.20
2022-09-05T07:32:53.471Z,2.33
2022-09-05T07:35:29.329Z,2.97
2022-09-05T07:38:07.154Z,2.45
2022-09-05T07:40:39.749Z,2.90
2022-09-05T07:43:11.213Z,2.03
2022-09-05T07:45:56.123Z,2.25
2022-09-05T07:48:34.995Z,2.17
2022-09-05T07:56:47.856Z,2.38
2022-09-05T07:57:07.932Z,2.67
2022-09-05T07:59:42.721Z,2.05
2022-09-05T08:02:14.026Z,1.90
2022-09-05T08:04:42.987Z,2.40
2022-09-05T08:07:47.879Z,1.80
2022-09-05T08:10:11.121Z,2.47
2022-09-05T08:13:24.048Z,1.67
2022-09-05T08:16:13.436Z,2.20
2022-09-05T08:18:42.512Z,2.25
2022-09-05T08:21:14.803Z,2.80
2022-09-05T08:23:56.586Z,1.83
2022-09-05T08:26:44.059Z,1.77
2022-09-05T08:29:28.402Z,1.48
2022-09-05T08:32:03.534Z,1.63
2022-09-05T08:34:44.803Z,1.80
2022-09-05T08:37:21.650Z,1.73
2022-09-05T08:40:10.098Z,2.50
2022-09-05T08:44:09.913Z,1.73
2022-09-05T08:46:47.586Z,1.88
2022-09-05T08:49:12.398Z,1.73
2022-09-05T08:51:55.350Z,1.27
2022-09-05T08:54:33.099Z,1.27
2022-09-05T08:57:13.525Z,1.40
2022-09-05T09:00:02.725Z,1.40
2022-09-05T09:03:03.884Z,1.38
2022-09-05T09:06:13.434Z,1.42
2022-09-05T09:09:11.084Z,1.52
2022-09-05T09:11:44.602Z,1.42
2022-09-05T09:14:32.122Z,1.20
2022-09-05T09:17:10.481Z,1.17
2022-09-05T09:19:49.825Z,1.40
2022-09-05T09:22:33.257Z,1.55
2022-09-05T09:25:15.073Z,1.13
2022-09-05T09:28:48.487Z,1.77
2022-09-05T09:31:03.469Z,1.30
2022-09-05T09:33:41.877Z,1.10
2022-09-05T09:36:27.966Z,1.10
2022-09-05T09:39:37.411Z,1.23
2022-09-05T09:42:33.478Z,1.20
2022-09-05T09:45:29.699Z,1.30
2022-09-05T09:48:26.324Z,1.50
2022-09-05T09:51:12.716Z,1.38
2022-09-05T09:53:59.375Z,0.90
2022-09-05T09:57:00.729Z,1.08
2022-09-05T09:59:54.088Z,1.23
2022-09-05T10:08:57.404Z,1.02
2022-09-05T10:10:45.542Z,1.58
2022-09-05T10:10:55.577Z,1.05
2022-09-05T10:12:15.378Z,1.20
2022-09-05T10:15:06.559Z,1.05
2022-09-05T10:18:24.125Z,1.38
2022-09-05T10:21:25.807Z,1.30
2022-09-05T10:24:28.088Z,1.08
2022-09-05T10:27:26.837Z,1.33
2022-09-05T10:30:13.853Z,1.02
2022-09-05T10:35:07.718Z,1.13
2022-09-05T10:36:21.037Z,1.10
2022-09-05T10:39:02.630Z,0.82
2022-09-05T10:41:43.762Z,0.82
2022-09-05T10:44:15.104Z,1.27
2022-09-05T10:46:55.502Z,1.10
2022-09-05T10:49:29.983Z,1.00
2022-09-05T10:52:18.989Z,0.73
2022-09-05T10:55:16.148Z,0.90
2022-09-05T10:58:00.053Z,0.98
2022-09-05T11:02:22.383Z,0.80
2022-09-05T11:03:50.411Z,1.02
2022-09-05T11:06:24.983Z,1.40
2022-09-05T11:09:04.719Z,0.73
2022-09-05T11:11:46.162Z,0.68
2022-09-05T11:14:35.242Z,0.80
2022-09-05T11:17:14.531Z,0.95
2022-09-05T11:19:45.728Z,1.40
2022-09-05T11:22:22.941Z,1.02
2022-09-05T11:24:57.094Z,0.88
2022-09-05T11:30:05.816Z,1.30
2022-09-05T11:39:53.971Z,0.70
2022-09-05T11:40:02.802Z,0.98
2022-09-05T11:40:09.001Z,1.17
2022-09-05T11:42:24.625Z,0.98
2022-09-05T11:45:16.794Z,0.50
2022-09-05T11:48:23.338Z,0.80
2022-09-05T11:51:10.120Z,0.68
2022-09-05T11:54:00.801Z,0.55
2022-09-05T11:57:11.393Z,0.38
2022-09-05T12:00:32.065Z,0.55
2022-09-05T12:03:58.037Z,0.40
2022-09-05T12:07:29.889Z,0.60
2022-09-05T12:10:10.590Z,0.70
2022-09-05T12:13:17.507Z,0.90
2022-09-05T12:16:08.100Z,0.40
2022-09-05T12:18:46.622Z,0.75
2022-09-05T12:21:31.738Z,0.55
2022-09-05T12:24:59.298Z,0.70
2022-09-05T12:27:40.470Z,0.70
2022-09-05T12:29:59.749Z,0.70
2022-09-05T12:34:46.705Z,0.65
2022-09-05T12:36:10.173Z,0.50
2022-09-05T12:40:44.819Z,0.63
2022-09-05T12:41:44.939Z,0.70
2022-09-05T12:44:44.408Z,0.82
2022-09-05T12:47:19.794Z,0.98
2022-09-05T12:50:02.653Z,0.77
2022-09-05T12:52:42.554Z,0.68
2022-09-05T12:55:20.783Z,0.98
2022-09-05T13:02:15.994Z,0.70
2022-09-05T13:03:12.524Z,0.90
2022-09-05T13:03:48.500Z,1.05
2022-09-05T13:06:31.536Z,0.80
2022-09-05T13:09:05.018Z,1.48
2022-09-05T13:14:56.585Z,0.95
2022-09-05T13:15:03.211Z,1.02
2022-09-05T13:17:44.422Z,0.77
2022-09-05T13:20:20.457Z,0.52
2022-09-05T13:22:54.341Z,1.20
2022-09-05T13:25:27.253Z,1.27
2022-09-05T13:28:01.676Z,0.75
2022-09-05T13:36:38.679Z,0.80
2022-09-05T13:38:04.623Z,0.77
2022-09-05T13:38:11.256Z,1.02
2022-09-05T13:39:12.888Z,1.40
2022-09-05T13:41:46.272Z,1.58
2022-09-05T13:44:25.648Z,1.08
2022-09-05T13:47:01.083Z,1.52
2022-09-05T13:49:35.253Z,0.90
2022-09-05T13:52:22.387Z,0.88
2022-09-05T13:55:00.550Z,1.00
2022-09-05T13:57:37.308Z,1.05
2022-09-05T14:00:53.067Z,1.02
2022-09-05T14:03:58.800Z,0.63
2022-09-05T14:10:21.948Z,1.08
2022-09-05T14:13:01.223Z,0.90
2022-09-05T14:15:41.069Z,0.73
2022-09-05T14:18:21.420Z,0.77
2022-09-05T14:21:13.483Z,1.10
2022-09-05T14:23:48.651Z,0.65
2022-09-05T14:26:24.860Z,0.93
2022-09-05T14:29:02.289Z,1.13
2022-09-05T14:35:20.779Z,1.00
2022-09-05T14:37:38.988Z,0.80
2022-09-05T14:38:07.914Z,0.90
2022-09-05T14:41:28.365Z,1.10
2022-09-05T14:44:27.608Z,0.70
2022-09-05T14:47:34.676Z,1.02
2022-09-05T14:50:29.343Z,0.80
2022-09-05T14:56:23.175Z,0.90
2022-09-05T15:02:49.131Z,1.02
2022-09-05T15:02:52.914Z,1.08
2022-09-05T15:04:44.687Z,1.20
2022-09-05T15:07:19.726Z,1.08
2022-09-05T15:12:15.725Z,1.05
2022-09-05T15:12:51.207Z,1.48
2022-09-05T15:15:26.085Z,0.60
2022-09-05T15:17:59.934Z,1.02
2022-09-05T15:20:35.844Z,0.90
2022-09-05T15:23:16.197Z,1.13
2022-09-05T15:25:48.424Z,1.33
2022-09-05T15:28:23.157Z,1.50
2022-09-05T15:31:00.082Z,1.25
2022-09-05T15:33:31.369Z,1.02
2022-09-05T15:36:00.781Z,1.50
2022-09-05T15:38:38.747Z,1.40
2022-09-05T15:41:23.804Z,0.65
2022-09-05T15:43:58.371Z,0.95
2022-09-05T15:46:39.451Z,0.90
2022-09-05T15:49:14.329Z,0.98
2022-09-05T15:51:48.097Z,0.93
2022-09-05T15:54:38.112Z,1.52
2022-09-05T15:57:17.517Z,1.23
2022-09-05T15:59:49.525Z,1.35
2022-09-05T16:02:22.268Z,0.80
2022-09-05T16:10:29.253Z,1.10
2022-09-05T16:10:43.754Z,0.77
2022-09-05T16:11:20.296Z,1.10
2022-09-05T16:13:52.599Z,1.05
2022-09-05T16:23:09.313Z,1.05
2022-09-05T16:23:24.302Z,1.35
2022-09-05T16:23:26.563Z,1.10
2022-09-05T16:25:01.397Z,0.98
2022-09-05T16:27:43.871Z,1.17
2022-09-05T16:32:50.929Z,1.10
2022-09-05T16:35:24.895Z,1.08
2022-09-05T16:38:03.412Z,1.02
2022-09-05T16:40:36.347Z,0.77
2022-09-05T16:43:10.160Z,1.17
2022-09-05T16:45:46.136Z,1.00
2022-09-05T16:48:43.215Z,0.80
2022-09-05T16:51:34.778Z,1.20
2022-09-05T16:54:14.031Z,1.48
2022-09-05T16:56:45.768Z,1.73
2022-09-05T16:59:19.258Z,1.30
2022-09-05T17:02:05.915Z,1.27
2022-09-05T17:05:05.001Z,1.40
2022-09-05T17:07:50.453Z,1.35
2022-09-05T17:10:24.256Z,0.93
2022-09-05T17:12:53.024Z,1.45
2022-09-05T17:15:26.234Z,1.45
2022-09-05T17:18:20.698Z,1.58
2022-09-05T17:20:52.160Z,1.10
2022-09-05T17:29:16.804Z,1.65
2022-09-05T17:29:37.958Z,1.20
2022-09-05T17:31:23.407Z,1.38
2022-09-05T17:32:28.500Z,1.10
2022-09-05T17:35:18.206Z,1.33
2022-09-05T17:38:19.269Z,0.70
2022-09-05T17:41:15.279Z,1.25
2022-09-05T17:43:51.079Z,0.98
2022-09-05T17:46:23.812Z,1.00
2022-09-05T17:52:20.584Z,1.33
2022-09-05T17:54:52.404Z,1.40
2022-09-05T17:57:40.041Z,0.93
2022-09-05T18:00:47.422Z,1.13
2022-09-05T18:04:15.890Z,1.00
2022-09-05T18:06:59.250Z,0.50
2022-09-05T18:10:12.705Z,0.82
2022-09-05T18:13:12.657Z,0.88
2022-09-05T18:16:12.460Z,1.20
2022-09-05T18:19:27.625Z,0.80
2022-09-05T18:21:49.610Z,1.00
2022-09-05T18:24:42.693Z,1.13
2022-09-05T18:30:13.151Z,0.77
2022-09-05T18:34:03.426Z,1.00
2022-09-05T18:36:42.674Z,0.95
2022-09-05T18:39:47.246Z,0.90
2022-09-05T18:42:33.634Z,1.23
2022-09-05T18:45:14.614Z,0.68
2022-09-05T18:47:50.951Z,0.88
2022-09-05T18:50:29.356Z,1.15
2022-09-05T18:53:09.991Z,0.75
2022-09-05T18:56:12.616Z,1.58
2022-09-05T18:58:35.978Z,0.77
2022-09-05T19:01:28.331Z,0.98
2022-09-05T19:04:01.093Z,0.95
2022-09-05T19:06:36.412Z,1.15
2022-09-05T19:09:09.151Z,1.00
2022-09-05T19:11:52.754Z,0.63
2022-09-05T19:14:37.628Z,1.10
2022-09-05T19:17:10.437Z,0.80
2022-09-05T19:20:31.961Z,0.85
2022-09-05T19:23:11.351Z,0.70
2022-09-05T19:25:43.594Z,1.10
2022-09-05T19:36:58.355Z,0.73
2022-09-05T19:37:03.124Z,0.68
2022-09-05T19:37:03.293Z,0.60
2022-09-05T19:47:11.021Z,1.15
2022-09-05T19:47:26.678Z,0.98
2022-09-05T19:47:36.818Z,1.35
2022-09-05T19:48:25.293Z,1.00
2022-09-05T19:50:56.850Z,1.05
2022-09-05T19:53:25.909Z,1.15
2022-09-05T19:55:54.861Z,1.00
2022-09-05T19:58:25.007Z,0.82
2022-09-05T20:01:03.615Z,0.80
2022-09-05T20:03:39.140Z,1.00
2022-09-05T20:06:29.357Z,0.90
2022-09-05T20:09:11.297Z,1.23
2022-09-05T20:11:46.292Z,0.85
2022-09-05T20:14:23.883Z,1.13
2022-09-05T20:16:54.948Z,0.90
2022-09-05T20:19:31.238Z,0.95
2022-09-05T20:22:14.371Z,0.68
2022-09-05T20:24:52.354Z,0.90
2022-09-05T20:27:27.127Z,0.88
2022-09-05T20:29:58.277Z,0.90
2022-09-05T20:32:38.535Z,0.80
2022-09-05T20:40:05.472Z,0.70
2022-09-05T20:43:16.585Z,0.68
2022-09-05T20:43:26.922Z,0.70
2022-09-05T20:43:58.242Z,0.98
2022-09-05T20:54:10.217Z,0.90
2022-09-05T20:54:10.559Z,1.30
2022-09-05T20:54:23.016Z,1.77
2022-09-05T20:55:38.651Z,0.70
2022-09-05T20:58:10.000Z,1.10
2022-09-05T21:00:40.062Z,0.98
2022-09-05T21:03:09.249Z,1.17
2022-09-05T21:05:40.052Z,1.02
2022-09-05T21:08:34.930Z,0.80
2022-09-05T21:11:05.087Z,0.70
2022-09-05T21:13:36.190Z,0.98
2022-09-05T21:16:15.854Z,1.05
2022-09-05T21:18:45.254Z,0.88
2022-09-05T21:21:28.364Z,1.00
2022-09-05T21:24:15.920Z,1.58
2022-09-05T21:26:50.416Z,0.80
2022-09-05T21:29:32.444Z,1.90
2022-09-05T21:32:10.555Z,0.82
2022-09-05T21:34:45.092Z,1.40
2022-09-05T21:37:16.191Z,1.20
2022-09-05T21:39:59.328Z,0.85
2022-09-05T21:42:54.753Z,0.98
2022-09-05T21:47:39.614Z,1.20
2022-09-05T21:48:08.996Z,0.90
2022-09-05T21:50:41.925Z,0.80
2022-09-05T21:55:09.330Z,0.77
2022-09-05T21:59:20.937Z,0.98
2022-09-05T21:59:27.094Z,1.00
2022-09-05T22:01:51.402Z,0.80
2022-09-05T22:04:22.637Z,0.90
2022-09-05T22:06:53.206Z,1.40
2022-09-05T22:09:23.262Z,1.48
2022-09-05T22:11:53.713Z,0.88
2022-09-05T22:14:24.490Z,0.80
2022-09-05T22:16:56.258Z,1.35
2022-09-05T22:19:37.774Z,1.08
2022-09-05T22:22:16.266Z,1.38
2022-09-05T22:24:51.070Z,1.00
2022-09-05T22:27:22.714Z,0.98
2022-09-05T22:29:52.490Z,2.20
2022-09-05T22:32:34.806Z,0.98
2022-09-05T22:35:27.331Z,1.20
2022-09-05T22:38:01.417Z,1.10
2022-09-05T22:40:32.104Z,1.25
2022-09-05T22:43:05.314Z,1.10
2022-09-05T22:45:35.206Z,1.48
2022-09-05T22:48:09.239Z,1.10
2022-09-05T22:50:37.923Z,1.92
2022-09-05T22:53:07.145Z,0.93
2022-09-05T22:55:35.609Z,1.20
2022-09-05T22:58:05.730Z,1.13
2022-09-05T23:00:34.778Z,1.27
2022-09-05T23:03:05.997Z,1.38
2022-09-05T23:05:35.293Z,0.88
2022-09-05T23:08:05.213Z,2.15
2022-09-05T23:10:33.590Z,1.63
2022-09-05T23:13:06.697Z,1.25
2022-09-05T23:18:04.318Z,0.90
2022-09-05T23:20:33.466Z,1.17
2022-09-05T23:23:05.490Z,1.30
2022-09-05T23:25:34.130Z,1.60
2022-09-05T23:28:08.055Z,1.55
2022-09-05T23:30:36.737Z,1.65
2022-09-05T23:33:07.403Z,1.15
2022-09-05T23:35:36.043Z,1.80
2022-09-05T23:38:04.667Z,0.98
2022-09-05T23:40:32.899Z,1.50
2022-09-05T23:43:01.376Z,1.00
2022-09-05T23:45:31.333Z,1.65
2022-09-05T23:47:59.928Z,1.40
2022-09-05T23:50:29.128Z,1.30
2022-09-05T23:52:58.012Z,1.35
2022-09-05T23:55:27.274Z,1.60
2022-09-05T23:57:58.846Z,1.42
